Terminal Aerodrome Forecast
Issued by NWS

Home | Current Version | Previous Version | Text Only | Print | Product List | Glossary On
Versions: 1 2 3 4 5 6 7 8 9 10 11 12 13 14 15 16 17 18 19
621
FTUS43 KTOP 292320
TAFFOE
TAF
KFOE 292320Z 3000/3024 02015G22KT 3SM -RA OVC005
     FM300200 03015G24KT 6SM BR VCSH OVC006
     FM300900 04013G21KT 3SM -RA BR OVC006
      TEMPO 3010/3013 2SM RA BR OVC004
     FM301500 17011KT P6SM VCSH OVC007
     FM301900 18014KT P6SM VCSH OVC012=

USA.gov is the U.S. government's official web portal to all federal, state and local government web resources and services.